sensor_id;sensor_type;location;lat;lon;timestamp;pressure;altitude;pressure_sealevel;temperature;humidity
81990;BME280;71485;51.638;-0.182;2024-03-02T00:01:25;98084.02;;;21.73;28.46
81990;BME280;71485;51.638;-0.182;2024-03-02T00:03:51;98083.19;;;21.73;28.42
81990;BME280;71485;51.638;-0.182;2024-03-02T00:06:20;98082.25;;;21.67;28.47
81990;BME280;71485;51.638;-0.182;2024-03-02T00:08:42;98078.67;;;21.69;28.54
81990;BME280;71485;51.638;-0.182;2024-03-02T00:11:08;98076.55;;;21.66;28.49
81990;BME280;71485;51.638;-0.182;2024-03-02T00:13:33;98076.90;;;21.12;28.55
81990;BME280;71485;51.638;-0.182;2024-03-02T00:15:59;98073.39;;;21.60;28.56
81990;BME280;71485;51.638;-0.182;2024-03-02T00:18:26;98075.40;;;21.57;28.58
81990;BME280;71485;51.638;-0.182;2024-03-02T00:20:53;98073.36;;;21.32;28.60
81990;BME280;71485;51.638;-0.182;2024-03-02T00:23:16;98084.35;;;21.53;28.63
81990;BME280;71485;51.638;-0.182;2024-03-02T00:25:44;98089.90;;;21.13;28.59
81990;BME280;71485;51.638;-0.182;2024-03-02T00:28:14;98093.16;;;21.68;28.46
81990;BME280;71485;51.638;-0.182;2024-03-02T00:30:46;98089.53;;;21.39;28.49
81990;BME280;71485;51.638;-0.182;2024-03-02T00:33:03;98087.88;;;21.27;28.62
81990;BME280;71485;51.638;-0.182;2024-03-02T00:35:25;98093.09;;;21.46;28.66
81990;BME280;71485;51.638;-0.182;2024-03-02T00:37:49;98091.41;;;21.40;28.75
81990;BME280;71485;51.638;-0.182;2024-03-02T00:40:19;98085.32;;;21.14;28.77
81990;BME280;71485;51.638;-0.182;2024-03-02T00:42:41;98090.53;;;21.40;28.74
81990;BME280;71485;51.638;-0.182;2024-03-02T00:45:08;98091.47;;;21.35;28.78
81990;BME280;71485;51.638;-0.182;2024-03-02T00:47:32;98089.59;;;21.38;28.77
81990;BME280;71485;51.638;-0.182;2024-03-02T00:49:58;98086.34;;;21.32;28.80
81990;BME280;71485;51.638;-0.182;2024-03-02T00:52:25;98091.21;;;21.30;28.82
81990;BME280;71485;51.638;-0.182;2024-03-02T00:54:49;98090.70;;;21.30;28.80
81990;BME280;71485;51.638;-0.182;2024-03-02T00:57:15;98087.05;;;21.28;28.82
81990;BME280;71485;51.638;-0.182;2024-03-02T00:59:41;98093.65;;;21.25;28.85
81990;BME280;71485;51.638;-0.182;2024-03-02T01:02:06;98094.37;;;20.96;28.90
81990;BME280;71485;51.638;-0.182;2024-03-02T01:04:31;98089.67;;;20.74;28.88
81990;BME280;71485;51.638;-0.182;2024-03-02T01:06:57;98081.08;;;21.25;28.84
81990;BME280;71485;51.638;-0.182;2024-03-02T01:09:30;98080.66;;;21.27;28.85
81990;BME280;71485;51.638;-0.182;2024-03-02T01:11:48;98081.30;;;21.38;28.68
81990;BME280;71485;51.638;-0.182;2024-03-02T01:14:14;98084.11;;;21.31;28.72
81990;BME280;71485;51.638;-0.182;2024-03-02T01:16:39;98074.07;;;20.99;28.81
81990;BME280;71485;51.638;-0.182;2024-03-02T01:19:05;98076.45;;;21.22;28.84
81990;BME280;71485;51.638;-0.182;2024-03-02T01:21:31;98074.58;;;21.29;28.78
81990;BME280;71485;51.638;-0.182;2024-03-02T01:23:56;98074.07;;;21.28;28.82
81990;BME280;71485;51.638;-0.182;2024-03-02T01:26:23;98078.38;;;21.24;28.88
81990;BME280;71485;51.638;-0.182;2024-03-02T01:28:48;98079.25;;;21.22;28.90
81990;BME280;71485;51.638;-0.182;2024-03-02T01:31:13;98081.32;;;21.21;28.92
81990;BME280;71485;51.638;-0.182;2024-03-02T01:33:39;98085.62;;;21.17;28.97
81990;BME280;71485;51.638;-0.182;2024-03-02T01:36:06;98084.26;;;21.20;28.95
81990;BME280;71485;51.638;-0.182;2024-03-02T01:38:32;98079.06;;;21.16;28.98
81990;BME280;71485;51.638;-0.182;2024-03-02T01:40:57;98079.70;;;21.23;28.89
81990;BME280;71485;51.638;-0.182;2024-03-02T01:43:21;98077.35;;;21.40;29.08
81990;BME280;71485;51.638;-0.182;2024-03-02T01:45:47;98076.93;;;21.66;29.17
81990;BME280;71485;51.638;-0.182;2024-03-02T01:48:16;98077.28;;;22.00;28.79
81990;BME280;71485;51.638;-0.182;2024-03-02T01:50:40;98077.63;;;22.21;28.57
81990;BME280;71485;51.638;-0.182;2024-03-02T01:53:09;98073.19;;;21.93;28.43
81990;BME280;71485;51.638;-0.182;2024-03-02T01:55:32;98066.48;;;21.93;28.42
81990;BME280;71485;51.638;-0.182;2024-03-02T01:57:57;98067.52;;;21.92;28.69
81990;BME280;71485;51.638;-0.182;2024-03-02T02:00:25;98060.68;;;22.48;28.37
81990;BME280;71485;51.638;-0.182;2024-03-02T02:02:48;98052.89;;;22.16;28.19
81990;BME280;71485;51.638;-0.182;2024-03-02T02:05:12;98056.32;;;22.25;28.08
81990;BME280;71485;51.638;-0.182;2024-03-02T02:07:39;98049.20;;;22.22;28.10
81990;BME280;71485;51.638;-0.182;2024-03-02T02:10:06;98050.03;;;22.28;27.98
81990;BME280;71485;51.638;-0.182;2024-03-02T02:12:29;98044.66;;;22.38;27.87
81990;BME280;71485;51.638;-0.182;2024-03-02T02:14:54;98037.08;;;22.79;27.88
81990;BME280;71485;51.638;-0.182;2024-03-02T02:17:21;98039.17;;;22.36;27.83
81990;BME280;71485;51.638;-0.182;2024-03-02T02:19:45;98047.05;;;22.48;27.66
81990;BME280;71485;51.638;-0.182;2024-03-02T02:22:11;98045.26;;;22.53;27.57
81990;BME280;71485;51.638;-0.182;2024-03-02T02:24:40;98043.41;;;22.82;27.53
81990;BME280;71485;51.638;-0.182;2024-03-02T02:27:03;98034.84;;;22.60;27.47
81990;BME280;71485;51.638;-0.182;2024-03-02T02:29:28;98027.62;;;22.56;27.48
81990;BME280;71485;51.638;-0.182;2024-03-02T02:31:55;98025.46;;;22.63;27.43
81990;BME280;71485;51.638;-0.182;2024-03-02T02:34:20;98028.45;;;22.70;27.33
81990;BME280;71485;51.638;-0.182;2024-03-02T02:36:45;98027.93;;;22.73;27.25
81990;BME280;71485;51.638;-0.182;2024-03-02T02:39:15;98023.10;;;22.68;27.23
81990;BME280;71485;51.638;-0.182;2024-03-02T02:41:36;98024.28;;;22.79;27.14
81990;BME280;71485;51.638;-0.182;2024-03-02T02:44:06;98024.51;;;22.82;27.06
81990;BME280;71485;51.638;-0.182;2024-03-02T02:46:31;98015.86;;;22.83;27.10
81990;BME280;71485;51.638;-0.182;2024-03-02T02:48:53;98008.26;;;22.85;27.02
81990;BME280;71485;51.638;-0.182;2024-03-02T02:51:20;98004.99;;;22.89;26.96
81990;BME280;71485;51.638;-0.182;2024-03-02T02:53:47;98002.39;;;22.76;26.90
81990;BME280;71485;51.638;-0.182;2024-03-02T02:56:10;97995.05;;;23.01;26.89
81990;BME280;71485;51.638;-0.182;2024-03-02T02:58:35;97992.15;;;22.54;26.87
81990;BME280;71485;51.638;-0.182;2024-03-02T03:01:03;97994.70;;;23.09;26.74
81990;BME280;71485;51.638;-0.182;2024-03-02T03:03:27;97989.36;;;23.11;26.72
81990;BME280;71485;51.638;-0.182;2024-03-02T03:05:52;97989.17;;;22.85;26.72
81990;BME280;71485;51.638;-0.182;2024-03-02T03:08:18;97991.50;;;23.03;26.70
81990;BME280;71485;51.638;-0.182;2024-03-02T03:10:46;97989.71;;;22.02;26.21
81990;BME280;71485;51.638;-0.182;2024-03-02T03:13:11;97984.30;;;23.13;25.05
81990;BME280;71485;51.638;-0.182;2024-03-02T03:15:36;97977.40;;;23.44;24.37
81990;BME280;71485;51.638;-0.182;2024-03-02T03:18:03;97975.38;;;23.49;24.06
81990;BME280;71485;51.638;-0.182;2024-03-02T03:20:28;97978.72;;;23.52;23.94
81990;BME280;71485;51.638;-0.182;2024-03-02T03:22:51;97983.97;;;24.08;24.19
81990;BME280;71485;51.638;-0.182;2024-03-02T03:25:18;97987.20;;;23.55;25.12
81990;BME280;71485;51.638;-0.182;2024-03-02T03:27:42;97993.13;;;23.03;25.62
81990;BME280;71485;51.638;-0.182;2024-03-02T03:30:08;97985.75;;;23.23;25.87
81990;BME280;71485;51.638;-0.182;2024-03-02T03:32:33;97979.44;;;22.81;26.04
81990;BME280;71485;51.638;-0.182;2024-03-02T03:35:00;97975.15;;;22.90;26.17
81990;BME280;71485;51.638;-0.182;2024-03-02T03:37:27;97970.80;;;22.82;26.23
81990;BME280;71485;51.638;-0.182;2024-03-02T03:39:51;97967.17;;;22.78;26.24
81990;BME280;71485;51.638;-0.182;2024-03-02T03:42:16;97960.28;;;22.71;26.30
81990;BME280;71485;51.638;-0.182;2024-03-02T03:44:42;97955.50;;;22.68;26.30
81990;BME280;71485;51.638;-0.182;2024-03-02T03:47:07;97960.51;;;22.65;26.31
81990;BME280;71485;51.638;-0.182;2024-03-02T03:49:33;97959.46;;;22.17;26.30
81990;BME280;71485;51.638;-0.182;2024-03-02T03:52:04;97958.54;;;22.64;26.30
81990;BME280;71485;51.638;-0.182;2024-03-02T03:54:25;97951.93;;;22.37;26.30
81990;BME280;71485;51.638;-0.182;2024-03-02T03:56:49;97952.22;;;22.58;26.32
81990;BME280;71485;51.638;-0.182;2024-03-02T03:59:15;97949.88;;;22.49;26.39
81990;BME280;71485;51.638;-0.182;2024-03-02T04:01:41;97949.32;;;22.48;26.40
81990;BME280;71485;51.638;-0.182;2024-03-02T04:04:07;97944.43;;;22.49;26.36
81990;BME280;71485;51.638;-0.182;2024-03-02T04:06:32;97944.34;;;22.47;26.34
81990;BME280;71485;51.638;-0.182;2024-03-02T04:08:58;97946.10;;;22.24;26.33
81990;BME280;71485;51.638;-0.182;2024-03-02T04:11:24;97941.07;;;22.46;26.33
81990;BME280;71485;51.638;-0.182;2024-03-02T04:13:49;97942.82;;;22.18;26.34
81990;BME280;71485;51.638;-0.182;2024-03-02T04:16:14;97941.18;;;22.43;26.33
81990;BME280;71485;51.638;-0.182;2024-03-02T04:18:40;97940.98;;;22.39;26.33
81990;BME280;71485;51.638;-0.182;2024-03-02T04:21:05;97937.84;;;22.38;26.32
81990;BME280;71485;51.638;-0.182;2024-03-02T04:23:31;97939.46;;;22.37;26.30
81990;BME280;71485;51.638;-0.182;2024-03-02T04:25:58;97933.54;;;22.28;26.37
81990;BME280;71485;51.638;-0.182;2024-03-02T04:28:22;97929.38;;;22.26;26.38
81990;BME280;71485;51.638;-0.182;2024-03-02T04:30:48;97931.93;;;22.31;26.34
81990;BME280;71485;51.638;-0.182;2024-03-02T04:33:13;97933.27;;;22.29;26.34
81990;BME280;71485;51.638;-0.182;2024-03-02T04:35:40;97931.70;;;22.33;26.33
81990;BME280;71485;51.638;-0.182;2024-03-02T04:38:05;97926.62;;;22.27;26.35
81990;BME280;71485;51.638;-0.182;2024-03-02T04:40:33;97926.04;;;22.23;26.34
81990;BME280;71485;51.638;-0.182;2024-03-02T04:42:56;97930.08;;;22.26;26.31
81990;BME280;71485;51.638;-0.182;2024-03-02T04:45:24;97929.94;;;22.20;26.32
81990;BME280;71485;51.638;-0.182;2024-03-02T04:47:47;97928.84;;;22.16;26.31
81990;BME280;71485;51.638;-0.182;2024-03-02T04:50:15;97915.70;;;22.16;26.30
81990;BME280;71485;51.638;-0.182;2024-03-02T04:52:39;97923.94;;;22.11;26.30
81990;BME280;71485;51.638;-0.182;2024-03-02T04:55:05;97924.46;;;22.57;26.28
81990;BME280;71485;51.638;-0.182;2024-03-02T04:57:29;97926.67;;;22.37;26.25
81990;BME280;71485;51.638;-0.182;2024-03-02T04:59:55;97927.73;;;22.61;26.21
81990;BME280;71485;51.638;-0.182;2024-03-02T05:02:21;97934.75;;;22.08;26.24
81990;BME280;71485;51.638;-0.182;2024-03-02T05:04:46;97933.32;;;21.98;26.31
81990;BME280;71485;51.638;-0.182;2024-03-02T05:07:12;97936.39;;;22.23;26.30
81990;BME280;71485;51.638;-0.182;2024-03-02T05:09:40;97938.35;;;21.96;26.29
81990;BME280;71485;51.638;-0.182;2024-03-02T05:12:03;97938.74;;;21.94;26.32
81990;BME280;71485;51.638;-0.182;2024-03-02T05:14:29;97936.54;;;21.94;26.29
81990;BME280;71485;51.638;-0.182;2024-03-02T05:16:55;97937.67;;;21.89;26.31
81990;BME280;71485;51.638;-0.182;2024-03-02T05:19:20;97934.26;;;21.85;26.33
81990;BME280;71485;51.638;-0.182;2024-03-02T05:21:46;97938.43;;;22.12;26.28
81990;BME280;71485;51.638;-0.182;2024-03-02T05:24:11;97940.37;;;22.10;26.30
81990;BME280;71485;51.638;-0.182;2024-03-02T05:26:38;97926.92;;;21.83;26.29
81990;BME280;71485;51.638;-0.182;2024-03-02T05:29:02;97925.60;;;22.05;26.31
81990;BME280;71485;51.638;-0.182;2024-03-02T05:31:29;97927.71;;;21.78;26.32
81990;BME280;71485;51.638;-0.182;2024-03-02T05:33:55;97924.08;;;22.04;26.30
81990;BME280;71485;51.638;-0.182;2024-03-02T05:36:19;97922.36;;;21.72;26.37
81990;BME280;71485;51.638;-0.182;2024-03-02T05:38:46;97926.33;;;21.99;26.34
81990;BME280;71485;51.638;-0.182;2024-03-02T05:41:13;97917.92;;;21.99;26.35
81990;BME280;71485;51.638;-0.182;2024-03-02T05:43:37;97923.93;;;21.73;26.35
81990;BME280;71485;51.638;-0.182;2024-03-02T05:46:02;97916.46;;;21.67;26.40
81990;BME280;71485;51.638;-0.182;2024-03-02T05:48:31;97909.77;;;21.67;26.39
81990;BME280;71485;51.638;-0.182;2024-03-02T05:50:54;97896.41;;;21.89;26.41
81990;BME280;71485;51.638;-0.182;2024-03-02T05:53:19;97894.14;;;21.87;26.40
81990;BME280;71485;51.638;-0.182;2024-03-02T05:55:44;97898.51;;;21.63;26.37
81990;BME280;71485;51.638;-0.182;2024-03-02T05:58:10;97900.05;;;21.83;26.41
81990;BME280;71485;51.638;-0.182;2024-03-02T06:00:36;97900.84;;;21.61;26.39
81990;BME280;71485;51.638;-0.182;2024-03-02T06:03:01;97892.87;;;21.91;26.53
81990;BME280;71485;51.638;-0.182;2024-03-02T06:05:28;97892.10;;;21.36;25.49
81990;BME280;71485;51.638;-0.182;2024-03-02T06:07:54;97890.13;;;21.68;24.62
81990;BME280;71485;51.638;-0.182;2024-03-02T06:10:22;97880.38;;;22.03;24.44
81990;BME280;71485;51.638;-0.182;2024-03-02T06:12:45;97882.65;;;21.61;24.64
81990;BME280;71485;51.638;-0.182;2024-03-02T06:15:11;97877.33;;;21.79;24.74
81990;BME280;71485;51.638;-0.182;2024-03-02T06:17:37;97881.56;;;21.83;24.76
81990;BME280;71485;51.638;-0.182;2024-03-02T06:20:01;97875.44;;;22.35;25.19
81990;BME280;71485;51.638;-0.182;2024-03-02T06:22:27;97872.44;;;21.79;26.29
81990;BME280;71485;51.638;-0.182;2024-03-02T06:24:53;97877.61;;;21.25;26.94
81990;BME280;71485;51.638;-0.182;2024-03-02T06:27:17;97877.81;;;21.46;27.28
81990;BME280;71485;51.638;-0.182;2024-03-02T06:29:43;97867.89;;;21.31;27.50
81990;BME280;71485;51.638;-0.182;2024-03-02T06:32:09;97876.78;;;21.18;27.68
81990;BME280;71485;51.638;-0.182;2024-03-02T06:34:36;97875.38;;;20.66;27.79
81990;BME280;71485;51.638;-0.182;2024-03-02T06:37:00;97870.09;;;21.07;27.91
81990;BME280;71485;51.638;-0.182;2024-03-02T06:39:27;97874.51;;;21.01;28.01
81990;BME280;71485;51.638;-0.182;2024-03-02T06:41:51;97873.77;;;20.94;28.13
81990;BME280;71485;51.638;-0.182;2024-03-02T06:44:17;97877.02;;;20.91;28.19
81990;BME280;71485;51.638;-0.182;2024-03-02T06:46:42;97877.73;;;20.85;28.31
81990;BME280;71485;51.638;-0.182;2024-03-02T06:49:11;97884.05;;;20.84;28.32
81990;BME280;71485;51.638;-0.182;2024-03-02T06:51:35;97881.57;;;21.04;28.37
81990;BME280;71485;51.638;-0.182;2024-03-02T06:54:00;97891.94;;;20.91;28.23
81990;BME280;71485;51.638;-0.182;2024-03-02T06:56:25;97895.89;;;21.05;28.04
81990;BME280;71485;51.638;-0.182;2024-03-02T06:58:51;97892.67;;;21.12;27.93
81990;BME280;71485;51.638;-0.182;2024-03-02T07:01:16;97888.66;;;21.19;27.83
81990;BME280;71485;51.638;-0.182;2024-03-02T07:03:42;97888.07;;;21.22;27.77
81990;BME280;71485;51.638;-0.182;2024-03-02T07:06:08;97887.48;;;21.24;27.73
81990;BME280;71485;51.638;-0.182;2024-03-02T07:08:33;97890.95;;;21.24;27.70
81990;BME280;71485;51.638;-0.182;2024-03-02T07:11:01;97893.20;;;21.25;27.65
81990;BME280;71485;51.638;-0.182;2024-03-02T07:13:25;97887.43;;;21.23;27.63
81990;BME280;71485;51.638;-0.182;2024-03-02T07:15:50;97887.23;;;21.19;27.63
81990;BME280;71485;51.638;-0.182;2024-03-02T07:18:16;97891.55;;;21.22;27.58
81990;BME280;71485;51.638;-0.182;2024-03-02T07:20:43;97887.20;;;21.22;27.57
81990;BME280;71485;51.638;-0.182;2024-03-02T07:23:09;97888.73;;;21.17;27.65
81990;BME280;71485;51.638;-0.182;2024-03-02T07:25:33;97892.72;;;20.69;27.70
81990;BME280;71485;51.638;-0.182;2024-03-02T07:27:58;97894.67;;;20.95;27.71
81990;BME280;71485;51.638;-0.182;2024-03-02T07:30:24;97891.89;;;21.15;27.78
81990;BME280;71485;51.638;-0.182;2024-03-02T07:32:50;97891.44;;;21.22;27.72
81990;BME280;71485;51.638;-0.182;2024-03-02T07:35:17;97891.62;;;21.21;27.71
81990;BME280;71485;51.638;-0.182;2024-03-02T07:37:47;97903.38;;;21.20;27.70
81990;BME280;71485;51.638;-0.182;2024-03-02T07:40:08;97901.04;;;21.16;27.70
81990;BME280;71485;51.638;-0.182;2024-03-02T07:42:32;97896.41;;;21.18;27.68
81990;BME280;71485;51.638;-0.182;2024-03-02T07:44:58;97903.17;;;21.15;27.73
81990;BME280;71485;51.638;-0.182;2024-03-02T07:47:23;97913.78;;;21.14;27.73
81990;BME280;71485;51.638;-0.182;2024-03-02T07:49:50;97910.68;;;21.15;27.70
81990;BME280;71485;51.638;-0.182;2024-03-02T07:52:15;97907.05;;;21.19;27.66
81990;BME280;71485;51.638;-0.182;2024-03-02T07:54:40;97904.85;;;21.21;27.62
81990;BME280;71485;51.638;-0.182;2024-03-02T07:57:06;97903.11;;;21.23;27.59
81990;BME280;71485;51.638;-0.182;2024-03-02T07:59:32;97903.83;;;21.45;27.61
81990;BME280;71485;51.638;-0.182;2024-03-02T08:01:58;97909.38;;;21.17;27.66
81990;BME280;71485;51.638;-0.182;2024-03-02T08:04:23;97905.24;;;21.42;27.64
81990;BME280;71485;51.638;-0.182;2024-03-02T08:06:48;97909.24;;;21.43;27.64
81990;BME280;71485;51.638;-0.182;2024-03-02T08:09:14;97904.64;;;21.19;27.63
81990;BME280;71485;51.638;-0.182;2024-03-02T08:11:43;97910.42;;;21.21;27.60
81990;BME280;71485;51.638;-0.182;2024-03-02T08:14:05;97919.86;;;21.20;27.60
81990;BME280;71485;51.638;-0.182;2024-03-02T08:16:31;97920.69;;;20.72;27.59
81990;BME280;71485;51.638;-0.182;2024-03-02T08:18:57;97927.84;;;21.21;27.54
81990;BME280;71485;51.638;-0.182;2024-03-02T08:21:22;97912.82;;;21.48;27.46
81990;BME280;71485;51.638;-0.182;2024-03-02T08:23:48;97920.36;;;21.25;27.42
81990;BME280;71485;51.638;-0.182;2024-03-02T08:26:14;97914.27;;;21.27;27.34
81990;BME280;71485;51.638;-0.182;2024-03-02T08:28:48;97912.82;;;21.21;27.39
81990;BME280;71485;51.638;-0.182;2024-03-02T08:31:05;97914.23;;;21.37;27.57
81990;BME280;71485;51.638;-0.182;2024-03-02T08:33:30;97913.58;;;21.34;27.73
81990;BME280;71485;51.638;-0.182;2024-03-02T08:35:58;97915.71;;;21.39;27.71
81990;BME280;71485;51.638;-0.182;2024-03-02T08:38:22;97921.66;;;21.39;27.75
81990;BME280;71485;51.638;-0.182;2024-03-02T08:40:49;97927.19;;;21.24;28.47
81990;BME280;71485;51.638;-0.182;2024-03-02T08:43:13;97935.45;;;21.34;28.35
81990;BME280;71485;51.638;-0.182;2024-03-02T08:45:40;97951.79;;;21.04;28.32
81990;BME280;71485;51.638;-0.182;2024-03-02T08:48:05;97951.77;;;21.01;28.34
81990;BME280;71485;51.638;-0.182;2024-03-02T08:50:30;97963.27;;;20.96;28.33
81990;BME280;71485;51.638;-0.182;2024-03-02T08:52:55;97962.78;;;20.93;28.36
81990;BME280;71485;51.638;-0.182;2024-03-02T08:55:23;97970.35;;;21.41;28.47
81990;BME280;71485;51.638;-0.182;2024-03-02T08:57:47;97978.06;;;20.96;28.82
81990;BME280;71485;51.638;-0.182;2024-03-02T09:00:13;97971.45;;;20.95;29.26
81990;BME280;71485;51.638;-0.182;2024-03-02T09:02:38;97972.66;;;20.92;29.54
81990;BME280;71485;51.638;-0.182;2024-03-02T09:05:05;97980.58;;;20.89;29.60
81990;BME280;71485;51.638;-0.182;2024-03-02T09:07:30;97988.01;;;20.61;29.63
81990;BME280;71485;51.638;-0.182;2024-03-02T09:09:55;97982.31;;;20.83;29.60
81990;BME280;71485;51.638;-0.182;2024-03-02T09:12:20;97983.78;;;20.90;29.51
81990;BME280;71485;51.638;-0.182;2024-03-02T09:14:46;97984.69;;;21.41;29.45
81990;BME280;71485;51.638;-0.182;2024-03-02T09:17:11;97981.30;;;21.19;29.42
81990;BME280;71485;51.638;-0.182;2024-03-02T09:19:37;97983.44;;;20.97;29.38
81990;BME280;71485;51.638;-0.182;2024-03-02T09:22:10;97981.65;;;21.00;29.57
81990;BME280;71485;51.638;-0.182;2024-03-02T09:24:34;97976.68;;;20.99;29.97
81990;BME280;71485;51.638;-0.182;2024-03-02T09:26:54;97975.54;;;21.24;30.07
81990;BME280;71485;51.638;-0.182;2024-03-02T09:29:21;97977.38;;;21.02;30.09
81990;BME280;71485;51.638;-0.182;2024-03-02T09:31:46;97977.91;;;20.95;31.12
81990;BME280;71485;51.638;-0.182;2024-03-02T09:34:12;97983.74;;;20.93;30.80
81990;BME280;71485;51.638;-0.182;2024-03-02T09:36:36;97990.67;;;21.35;31.24
81990;BME280;71485;51.638;-0.182;2024-03-02T09:39:03;97998.04;;;21.20;30.77
81990;BME280;71485;51.638;-0.182;2024-03-02T09:41:27;98001.48;;;21.28;30.74
81990;BME280;71485;51.638;-0.182;2024-03-02T09:43:53;98005.30;;;21.25;30.32
81990;BME280;71485;51.638;-0.182;2024-03-02T09:46:19;97998.05;;;21.46;29.89
81990;BME280;71485;51.638;-0.182;2024-03-02T09:48:44;97995.49;;;21.67;29.51
81990;BME280;71485;51.638;-0.182;2024-03-02T09:51:11;97996.72;;;21.49;29.28
81990;BME280;71485;51.638;-0.182;2024-03-02T09:53:36;97993.23;;;21.46;29.05
81990;BME280;71485;51.638;-0.182;2024-03-02T09:56:03;97998.74;;;21.70;28.92
81990;BME280;71485;51.638;-0.182;2024-03-02T09:58:27;97998.28;;;21.66;29.01
81990;BME280;71485;51.638;-0.182;2024-03-02T10:00:53;97995.86;;;21.95;28.73
81990;BME280;71485;51.638;-0.182;2024-03-02T10:03:19;98000.02;;;22.13;28.50
81990;BME280;71485;51.638;-0.182;2024-03-02T10:05:43;98001.08;;;21.92;30.07
81990;BME280;71485;51.638;-0.182;2024-03-02T10:08:09;97997.12;;;21.82;28.36
81990;BME280;71485;51.638;-0.182;2024-03-02T10:10:37;97993.94;;;21.87;28.15
81990;BME280;71485;51.638;-0.182;2024-03-02T10:13:04;97993.09;;;22.37;28.01
81990;BME280;71485;51.638;-0.182;2024-03-02T10:15:26;97987.94;;;21.92;27.97
81990;BME280;71485;51.638;-0.182;2024-03-02T10:17:51;97992.05;;;22.38;27.91
81990;BME280;71485;51.638;-0.182;2024-03-02T10:20:23;97998.20;;;22.42;27.90
81990;BME280;71485;51.638;-0.182;2024-03-02T10:22:43;97992.72;;;22.01;27.82
81990;BME280;71485;51.638;-0.182;2024-03-02T10:27:35;97999.15;;;22.19;27.54
81990;BME280;71485;51.638;-0.182;2024-03-02T10:30:05;98003.88;;;22.43;27.44
81990;BME280;71485;51.638;-0.182;2024-03-02T10:32:29;98001.95;;;22.20;27.43
81990;BME280;71485;51.638;-0.182;2024-03-02T10:34:56;98007.18;;;22.70;27.35
81990;BME280;71485;51.638;-0.182;2024-03-02T10:37:17;98011.51;;;22.28;27.27
81990;BME280;71485;51.638;-0.182;2024-03-02T10:39:46;98015.10;;;22.75;27.17
81990;BME280;71485;51.638;-0.182;2024-03-02T10:42:08;98012.23;;;22.32;27.21
81990;BME280;71485;51.638;-0.182;2024-03-02T10:44:34;98017.00;;;22.17;27.29
81990;BME280;71485;51.638;-0.182;2024-03-02T10:47:01;98017.62;;;21.83;27.37
81990;BME280;71485;51.638;-0.182;2024-03-02T10:49:31;98020.30;;;22.03;27.37
81990;BME280;71485;51.638;-0.182;2024-03-02T10:51:53;98020.43;;;22.23;27.38
81990;BME280;71485;51.638;-0.182;2024-03-02T10:54:16;98022.12;;;21.96;27.38
81990;BME280;71485;51.638;-0.182;2024-03-02T10:56:43;98024.71;;;22.20;27.35
81990;BME280;71485;51.638;-0.182;2024-03-02T10:59:16;98028.39;;;21.72;27.34
81990;BME280;71485;51.638;-0.182;2024-03-02T11:01:33;98034.33;;;21.71;27.31
81990;BME280;71485;51.638;-0.182;2024-03-02T11:03:59;98041.40;;;21.94;27.28
81990;BME280;71485;51.638;-0.182;2024-03-02T11:06:26;98041.14;;;21.70;27.28
81990;BME280;71485;51.638;-0.182;2024-03-02T11:08:50;98038.60;;;21.71;27.21
81990;BME280;71485;51.638;-0.182;2024-03-02T11:11:22;98037.88;;;21.95;27.20
81990;BME280;71485;51.638;-0.182;2024-03-02T11:13:43;98048.03;;;21.69;27.23
81990;BME280;71485;51.638;-0.182;2024-03-02T11:16:12;98052.89;;;21.69;27.22
81990;BME280;71485;51.638;-0.182;2024-03-02T11:18:32;98052.69;;;22.16;27.24
81990;BME280;71485;51.638;-0.182;2024-03-02T11:21:00;98053.60;;;22.16;27.20
81990;BME280;71485;51.638;-0.182;2024-03-02T11:23:31;98055.24;;;22.15;27.20
81990;BME280;71485;51.638;-0.182;2024-03-02T11:25:49;98054.37;;;21.67;27.19
81990;BME280;71485;51.638;-0.182;2024-03-02T11:28:14;98055.19;;;21.69;27.16
81990;BME280;71485;51.638;-0.182;2024-03-02T11:30:50;98059.36;;;21.69;27.13
81990;BME280;71485;51.638;-0.182;2024-03-02T11:33:07;98064.90;;;21.92;27.13
81990;BME280;71485;51.638;-0.182;2024-03-02T11:35:33;98059.05;;;21.92;27.11
81990;BME280;71485;51.638;-0.182;2024-03-02T11:38:02;98060.79;;;21.94;27.08
81990;BME280;71485;51.638;-0.182;2024-03-02T11:40:24;98062.18;;;22.16;27.06
81990;BME280;71485;51.638;-0.182;2024-03-02T11:42:48;98063.70;;;21.66;27.06
81990;BME280;71485;51.638;-0.182;2024-03-02T11:45:16;98066.51;;;21.89;27.07
81990;BME280;71485;51.638;-0.182;2024-03-02T11:47:39;98065.43;;;21.66;27.04
81990;BME280;71485;51.638;-0.182;2024-03-02T11:50:07;98061.58;;;21.90;27.04
81990;BME280;71485;51.638;-0.182;2024-03-02T11:52:33;98052.28;;;21.67;27.04
81990;BME280;71485;51.638;-0.182;2024-03-02T11:54:58;98058.82;;;21.91;27.05
81990;BME280;71485;51.638;-0.182;2024-03-02T11:57:22;98060.17;;;21.68;27.06
81990;BME280;71485;51.638;-0.182;2024-03-02T11:59:48;98061.15;;;21.92;27.04
81990;BME280;71485;51.638;-0.182;2024-03-02T12:02:16;98064.36;;;21.89;27.06
81990;BME280;71485;51.638;-0.182;2024-03-02T12:04:40;98063.55;;;21.64;27.07
81990;BME280;71485;51.638;-0.182;2024-03-02T12:07:09;98060.70;;;21.89;27.03
81990;BME280;71485;51.638;-0.182;2024-03-02T12:09:37;98063.53;;;21.88;27.08
81990;BME280;71485;51.638;-0.182;2024-03-02T12:12:02;98063.20;;;21.83;27.16
81990;BME280;71485;51.638;-0.182;2024-03-02T12:14:21;98066.01;;;21.53;27.25
81990;BME280;71485;51.638;-0.182;2024-03-02T12:16:47;98065.19;;;21.51;27.31
81990;BME280;71485;51.638;-0.182;2024-03-02T12:19:12;98064.07;;;21.74;27.34
81990;BME280;71485;51.638;-0.182;2024-03-02T12:21:38;98061.02;;;21.73;27.36
81990;BME280;71485;51.638;-0.182;2024-03-02T12:24:04;98069.20;;;21.54;27.67
81990;BME280;71485;51.638;-0.182;2024-03-02T12:26:33;98070.36;;;21.99;27.40
81990;BME280;71485;51.638;-0.182;2024-03-02T12:28:56;98071.97;;;22.05;27.37
81990;BME280;71485;51.638;-0.182;2024-03-02T12:31:20;98071.99;;;21.99;27.17
81990;BME280;71485;51.638;-0.182;2024-03-02T12:33:51;98068.77;;;22.13;27.20
81990;BME280;71485;51.638;-0.182;2024-03-02T12:36:13;98062.93;;;22.26;27.13
81990;BME280;71485;51.638;-0.182;2024-03-02T12:38:48;98062.22;;;22.50;27.24
81990;BME280;71485;51.638;-0.182;2024-03-02T12:41:03;98063.20;;;22.09;27.23
81990;BME280;71485;51.638;-0.182;2024-03-02T12:43:31;98066.97;;;21.99;27.29